Texas Enterprise — KSDF — position and weather

sailwx.info

Track history (hours):
 
Tides and Currents Weather Stations Pressure Air Temp Water Temp Dewpoint Dewpoint Depression Visibility Wind Speed Wind Dir Waves Ship Positions

Texas Enterprise

Owner: U.S. United Ocean Services, LLC, Tampa, FL. More information available from US FCC via Universal Licensing System and Coast Guard Vessel Documentation Center.

Last reported at 2015-Aug-02 15:23 UTC. Time now 2015-Aug-02 20:28 UTC.
Position N 29°21' W 094°44'.

Type: Cargo ship. MMSI: 366163000.

Date/timePositionNaut miles runAvg speedWind from/ knotsBaromVisibWave heightAir tempDewpointWater temp
2015-Aug-02 15:23N 29°21' W 094°44'5 1.6
2015-Aug-02 12:23N 29°18' W 094°49'0 0.0
2015-Aug-02 10:14N 29°18' W 094°49'0 0.0
2015-Aug-02 09:32N 29°18' W 094°49'0 0.0
2015-Aug-02 03:17N 29°18' W 094°49'0 0.0
2015-Aug-01 09:32N 29°18' W 094°49'0 0.0
2015-Aug-01 08:05N 29°18' W 094°49'0 0.0
2015-Aug-01 07:32N 29°18' W 094°49'2 2.2
2015-Aug-01 06:33N 29°19' W 094°47'  
2015-Jul-28 20:30N 25°33' W 080°02'9 9.9
2015-Jul-28 19:33N 25°43' W 080°01'10 9.6
2015-Jul-28 18:33N 25°52' W 080°00'10 9.6
2015-Jul-28 17:33N 26°02' W 079°59'9 9.5
2015-Jul-28 16:33N 26°11' W 079°57'10 9.9
2015-Jul-28 15:33N 26°21' W 079°57'1110.7
2015-Jul-28 14:33N 26°32' W 079°57'1211.9
2015-Jul-28 13:33N 26°44' W 079°56'1211.9
2015-Jul-28 12:31N 26°56' W 079°55'49610.5
2015-Jul-26 13:29N 34°43' W 076°42'0 0.0
2015-Jul-26 12:32N 34°43' W 076°42'0 0.0
2015-Jul-26 11:32N 34°43' W 076°42'0 0.0
2015-Jul-26 10:32N 34°43' W 076°42'0 0.0
2015-Jul-26 09:32N 34°43' W 076°42'0 0.0
2015-Jul-26 08:32N 34°43' W 076°42'0 0.0
2015-Jul-26 07:32N 34°43' W 076°42'0 0.0
2015-Jul-26 06:32N 34°43' W 076°42'0 0.0
2015-Jul-26 05:32N 34°43' W 076°42'0 0.0
2015-Jul-26 04:32N 34°43' W 076°42'0 0.0
2015-Jul-26 03:32N 34°43' W 076°42'0 0.0
2015-Jul-26 02:32N 34°43' W 076°42'0 0.0
2015-Jul-26 01:32N 34°43' W 076°42'0 0.0
2015-Jul-26 00:32N 34°43' W 076°42'0 0.0
2015-Jul-25 23:32N 34°43' W 076°42'0 0.0
2015-Jul-25 22:32N 34°43' W 076°42'0 0.0
2015-Jul-25 21:32N 34°43' W 076°42'0 0.0
2015-Jul-25 20:32N 34°43' W 076°42'0 0.0
2015-Jul-25 19:32N 34°43' W 076°42'0 0.0
2015-Jul-25 18:32N 34°43' W 076°42'0 0.0
2015-Jul-25 17:32N 34°43' W 076°42'0 0.0
2015-Jul-25 16:32N 34°43' W 076°42'0 0.0
2015-Jul-25 15:32N 34°43' W 076°42'0 0.0
2015-Jul-25 14:32N 34°43' W 076°42'0 0.0
2015-Jul-25 13:32N 34°43' W 076°42'0 0.0
2015-Jul-25 12:32N 34°43' W 076°42'0 0.0
2015-Jul-25 11:32N 34°43' W 076°42'0 0.0
2015-Jul-25 10:32N 34°43' W 076°42'0 0.0
2015-Jul-25 09:32N 34°43' W 076°42'0 0.0
2015-Jul-25 08:32N 34°43' W 076°42'0 0.0
2015-Jul-25 07:32N 34°43' W 076°42'0 0.0
2015-Jul-25 06:32N 34°43' W 076°42'0 0.0
2015-Jul-25 05:32N 34°43' W 076°42'0 0.0
2015-Jul-25 04:32N 34°43' W 076°42'0 0.0
2015-Jul-25 03:32N 34°43' W 076°42'0 0.0
2015-Jul-25 02:32N 34°43' W 076°42'0 0.0
2015-Jul-25 01:32N 34°43' W 076°42'0 0.0
2015-Jul-25 00:32N 34°43' W 076°42'0 0.0
2015-Jul-24 23:32N 34°43' W 076°42'0 0.0
2015-Jul-24 22:32N 34°43' W 076°42'0 0.0
2015-Jul-24 21:32N 34°43' W 076°42'0 0.0
2015-Jul-24 20:32N 34°43' W 076°42'0 0.0
2015-Jul-24 19:32N 34°43' W 076°42'0 0.0
2015-Jul-24 18:32N 34°43' W 076°42'0 0.0
2015-Jul-24 17:32N 34°43' W 076°42'0 0.0
2015-Jul-24 16:32N 34°43' W 076°42'0 0.0
2015-Jul-24 15:32N 34°43' W 076°42'0 0.0
2015-Jul-24 14:32N 34°43' W 076°42'0 0.0
2015-Jul-24 13:32N 34°43' W 076°42'0 0.0
2015-Jul-24 12:32N 34°43' W 076°42'0 0.0
2015-Jul-24 11:33N 34°43' W 076°42'1 1.5
2015-Jul-24 10:33N 34°42' W 076°41'8 7.6
2015-Jul-24 09:33N 34°34' W 076°41'7 6.8
2015-Jul-24 08:33N 34°28' W 076°42'7 7.4
2015-Jul-24 07:33N 34°21' W 076°44'1 0.3
2015-Jul-24 05:28N 34°21' W 076°44'  
Track history (hours):
 
Tides and Currents Weather Stations Pressure Air Temp Water Temp Dewpoint Dewpoint Depression Visibility Wind Speed Wind Dir Waves Ship Positions

Texas Enterprise

Owner: U.S. United Ocean Services, LLC, Tampa, FL. More information available from US FCC via Universal Licensing System and Coast Guard Vessel Documentation Center.

Last reported at 2015-Aug-02 15:23 UTC. Time now 2015-Aug-02 20:28 UTC.
Position N 29°21' W 094°44'.

Type: Cargo ship. MMSI: 366163000.

Date/timePositionNaut miles runAvg speedWind from/ knotsBaromVisibWave heightAir tempDewpointWater temp
2015-Aug-02 15:23N 29°21' W 094°44'5 1.6
2015-Aug-02 12:23N 29°18' W 094°49'0 0.0
2015-Aug-02 10:14N 29°18' W 094°49'0 0.0
2015-Aug-02 09:32N 29°18' W 094°49'0 0.0
2015-Aug-02 03:17N 29°18' W 094°49'0 0.0
2015-Aug-01 09:32N 29°18' W 094°49'0 0.0
2015-Aug-01 08:05N 29°18' W 094°49'0 0.0
2015-Aug-01 07:32N 29°18' W 094°49'2 2.2
2015-Aug-01 06:33N 29°19' W 094°47'  
2015-Jul-28 20:30N 25°33' W 080°02'9 9.9
2015-Jul-28 19:33N 25°43' W 080°01'10 9.6
2015-Jul-28 18:33N 25°52' W 080°00'10 9.6
2015-Jul-28 17:33N 26°02' W 079°59'9 9.5
2015-Jul-28 16:33N 26°11' W 079°57'10 9.9
2015-Jul-28 15:33N 26°21' W 079°57'1110.7
2015-Jul-28 14:33N 26°32' W 079°57'1211.9
2015-Jul-28 13:33N 26°44' W 079°56'1211.9
2015-Jul-28 12:31N 26°56' W 079°55'49610.5
2015-Jul-26 13:29N 34°43' W 076°42'0 0.0
2015-Jul-26 12:32N 34°43' W 076°42'0 0.0
2015-Jul-26 11:32N 34°43' W 076°42'0 0.0
2015-Jul-26 10:32N 34°43' W 076°42'0 0.0
2015-Jul-26 09:32N 34°43' W 076°42'0 0.0
2015-Jul-26 08:32N 34°43' W 076°42'0 0.0
2015-Jul-26 07:32N 34°43' W 076°42'0 0.0
2015-Jul-26 06:32N 34°43' W 076°42'0 0.0
2015-Jul-26 05:32N 34°43' W 076°42'0 0.0
2015-Jul-26 04:32N 34°43' W 076°42'0 0.0
2015-Jul-26 03:32N 34°43' W 076°42'0 0.0
2015-Jul-26 02:32N 34°43' W 076°42'0 0.0
2015-Jul-26 01:32N 34°43' W 076°42'0 0.0
2015-Jul-26 00:32N 34°43' W 076°42'0 0.0
2015-Jul-25 23:32N 34°43' W 076°42'0 0.0
2015-Jul-25 22:32N 34°43' W 076°42'0 0.0
2015-Jul-25 21:32N 34°43' W 076°42'0 0.0
2015-Jul-25 20:32N 34°43' W 076°42'0 0.0
2015-Jul-25 19:32N 34°43' W 076°42'0 0.0
2015-Jul-25 18:32N 34°43' W 076°42'0 0.0
2015-Jul-25 17:32N 34°43' W 076°42'0 0.0
2015-Jul-25 16:32N 34°43' W 076°42'0 0.0
2015-Jul-25 15:32N 34°43' W 076°42'0 0.0
2015-Jul-25 14:32N 34°43' W 076°42'0 0.0
2015-Jul-25 13:32N 34°43' W 076°42'0 0.0
2015-Jul-25 12:32N 34°43' W 076°42'0 0.0
2015-Jul-25 11:32N 34°43' W 076°42'0 0.0
2015-Jul-25 10:32N 34°43' W 076°42'0 0.0
2015-Jul-25 09:32N 34°43' W 076°42'0 0.0
2015-Jul-25 08:32N 34°43' W 076°42'0 0.0
2015-Jul-25 07:32N 34°43' W 076°42'0 0.0
2015-Jul-25 06:32N 34°43' W 076°42'0 0.0
2015-Jul-25 05:32N 34°43' W 076°42'0 0.0
2015-Jul-25 04:32N 34°43' W 076°42'0 0.0
2015-Jul-25 03:32N 34°43' W 076°42'0 0.0
2015-Jul-25 02:32N 34°43' W 076°42'0 0.0
2015-Jul-25 01:32N 34°43' W 076°42'0 0.0
2015-Jul-25 00:32N 34°43' W 076°42'0 0.0
2015-Jul-24 23:32N 34°43' W 076°42'0 0.0
2015-Jul-24 22:32N 34°43' W 076°42'0 0.0
2015-Jul-24 21:32N 34°43' W 076°42'0 0.0
2015-Jul-24 20:32N 34°43' W 076°42'0 0.0
2015-Jul-24 19:32N 34°43' W 076°42'0 0.0
2015-Jul-24 18:32N 34°43' W 076°42'0 0.0
2015-Jul-24 17:32N 34°43' W 076°42'0 0.0
2015-Jul-24 16:32N 34°43' W 076°42'0 0.0
2015-Jul-24 15:32N 34°43' W 076°42'0 0.0
2015-Jul-24 14:32N 34°43' W 076°42'0 0.0
2015-Jul-24 13:32N 34°43' W 076°42'0 0.0
2015-Jul-24 12:32N 34°43' W 076°42'0 0.0
2015-Jul-24 11:33N 34°43' W 076°42'1 1.5
2015-Jul-24 10:33N 34°42' W 076°41'8 7.6
2015-Jul-24 09:33N 34°34' W 076°41'7 6.8
2015-Jul-24 08:33N 34°28' W 076°42'7 7.4
2015-Jul-24 07:33N 34°21' W 076°44'1 0.3
2015-Jul-24 05:28N 34°21' W 076°44'  

Dump ship's entire track history